Aeroporto :
LOGIN :

Iscrizione | Disclaimer

   EN    FR    IT 

 










Sommario :    VFR   VFR Marginale   IFR   IFR Intensivo   IFR Molto Intensivo
Visibilità : 
Base nubi : 
>= 8 km
>= 3000ft
5 / 8 km
1000 / 3000 ft
1500m / 5 km
500 / 1000 ft
800 / 1500m
200 / 500 ft
< 800m
< 200 ft
Simboli :   Temporali  Nebbia  Neve Forte  Precipitazioni Forti  Vento > 20 kt
SIGMETs :   Varie  Temporali  Ghiacco  Turbolenza  Onda orograficha  Ceneri Vulcaniche






- Altitudine del aeroporto : 1682 ft
- Codice IATA : VIT


LEVT - Vitoria Gasteiz

ULTIMO METAR :
  • 280900Z VRB01KT 8000 FEW001 06/06 Q1022

METARs OBSOLETI :
  • 280830Z 05001KT 7000 FEW001 05/05 Q1022
  • 280800Z VRB01KT 7000 0800W BCFG FEW002 03/03 Q1022
  • 280730Z VRB01KT 8000 0800E BCFG FEW002 02/02 Q1022
  • 280630Z 02002KT 6000 FEW002 02/02 Q1022

TAF TAF LEVT
Valido dal 28 a 06 ore il 29 a 06 ore UTC


280500Z 2806/2906 VRB04KT 9999 SCT050 TX19/2816Z TN01/2807Z
PROB40
TEMPO 2806/2808 0350 FG VV001
TEMPO 2812/2906 18010KT
TEMPO 2902/2906 18015G25KT
PROB40
TEMPO 2902/2906 RA



MetMap, La meteo Aeronautica in un colpo d'occhio ! - Copyright ORBIFLY Dicembre 2007 - Disclaimer

ORBIFLY MET'MAP TEAM :

Programmazione e sviluppo : Alexandra Zaïnal
Concezione : Baudouin d'Aumeries
Aiuto per la programmazione : Marc-Olivier Méhu
Supporto tecnico e logistico : Manuel Goepfert
Aiuto per la traduzione : Arnaldo La Scala

Contatto : metmap@orbifly.com




FONTI E CREDITI :

   NOAA